createdAt,value
2023-03-25T00:00:25.559Z,0.98
2023-03-25T00:02:53.698Z,0.85
2023-03-25T00:05:22.268Z,0.73
2023-03-25T00:07:52.630Z,0.98
2023-03-25T00:10:22.191Z,0.60
2023-03-25T00:12:48.944Z,0.63
2023-03-25T00:15:16.590Z,0.40
2023-03-25T00:17:44.299Z,0.70
2023-03-25T00:20:12.708Z,0.63
2023-03-25T00:22:44.652Z,0.45
2023-03-25T00:25:17.749Z,0.40
2023-03-25T00:27:46.682Z,0.70
2023-03-25T00:30:15.858Z,0.50
2023-03-25T00:32:45.975Z,0.60
2023-03-25T00:35:14.077Z,0.55
2023-03-25T00:37:41.299Z,0.52
2023-03-25T00:40:09.094Z,0.90
2023-03-25T00:42:35.954Z,0.40
2023-03-25T00:45:02.851Z,0.68
2023-03-25T00:47:31.459Z,0.50
2023-03-25T00:49:58.472Z,0.40
2023-03-25T00:52:26.688Z,0.50
2023-03-25T00:54:54.001Z,0.50
2023-03-25T00:57:22.319Z,0.60
2023-03-25T00:59:50.353Z,0.40
2023-03-25T01:02:19.098Z,0.50
2023-03-25T01:04:46.755Z,0.60
2023-03-25T01:07:16.555Z,0.47
2023-03-25T01:09:46.555Z,0.60
2023-03-25T01:12:15.671Z,0.55
2023-03-25T01:14:42.978Z,0.40
2023-03-25T01:17:10.331Z,0.60
2023-03-25T01:19:37.143Z,0.50
2023-03-25T01:22:04.142Z,0.40
2023-03-25T01:24:31.544Z,0.40
2023-03-25T01:26:58.601Z,1.48
2023-03-25T01:29:28.233Z,0.50
2023-03-25T01:31:55.710Z,0.30
2023-03-25T01:34:23.007Z,0.50
2023-03-25T01:36:49.975Z,0.40
2023-03-25T01:39:19.120Z,0.57
2023-03-25T01:41:50.487Z,0.30
2023-03-25T01:44:24.230Z,0.40
2023-03-25T01:46:53.868Z,0.40
2023-03-25T01:49:33.262Z,0.47
2023-03-25T01:52:13.998Z,0.50
2023-03-25T01:54:41.863Z,0.38
2023-03-25T01:57:10.459Z,0.50
2023-03-25T01:59:38.152Z,0.40
2023-03-25T02:02:06.709Z,0.40
2023-03-25T02:04:51.060Z,0.50
2023-03-25T02:07:20.082Z,0.30
2023-03-25T02:09:47.039Z,0.38
2023-03-25T02:12:13.885Z,0.47
2023-03-25T02:14:41.303Z,0.40
2023-03-25T02:17:55.604Z,0.40
2023-03-25T02:20:49.662Z,0.40
2023-03-25T02:23:34.504Z,0.40
2023-03-25T02:26:36.646Z,0.40
2023-03-25T02:29:08.020Z,0.60
2023-03-25T02:31:49.740Z,0.50
2023-03-25T02:34:34.844Z,0.40
2023-03-25T02:37:26.712Z,0.30
2023-03-25T02:40:08.842Z,0.43
2023-03-25T02:43:01.653Z,0.50
2023-03-25T02:45:34.239Z,0.30
2023-03-25T02:48:16.163Z,0.40
2023-03-25T02:50:48.809Z,0.50
2023-03-25T02:53:22.934Z,0.32
2023-03-25T02:55:51.900Z,0.30
2023-03-25T02:58:21.651Z,0.40
2023-03-25T03:00:50.044Z,0.68
2023-03-25T03:03:17.074Z,0.52
2023-03-25T03:05:46.427Z,0.52
2023-03-25T03:08:47.101Z,0.50
2023-03-25T03:11:34.121Z,0.35
2023-03-25T03:14:09.786Z,0.50
2023-03-25T03:17:08.417Z,0.68
2023-03-25T03:19:49.494Z,0.60
2023-03-25T03:22:41.640Z,0.68
2023-03-25T03:25:15.614Z,0.60
2023-03-25T03:28:10.130Z,0.73
2023-03-25T03:30:48.278Z,0.80
2023-03-25T03:33:25.693Z,0.63
2023-03-25T03:36:02.058Z,0.80
2023-03-25T03:38:43.332Z,0.65
2023-03-25T03:41:13.771Z,0.60
2023-03-25T03:43:48.944Z,0.70
2023-03-25T03:46:29.969Z,0.70
2023-03-25T03:48:59.616Z,0.80
2023-03-25T03:52:17.170Z,0.65
2023-03-25T03:54:51.640Z,0.80
2023-03-25T03:57:39.032Z,1.10
2023-03-25T04:00:30.970Z,0.80
2023-03-25T04:03:15.071Z,1.17
2023-03-25T04:05:48.552Z,0.88
2023-03-25T04:08:28.838Z,1.08
2023-03-25T04:11:09.804Z,1.08
2023-03-25T04:13:41.480Z,1.00
2023-03-25T04:16:09.184Z,0.90
2023-03-25T04:18:35.921Z,0.82
2023-03-25T04:21:02.970Z,1.02
2023-03-25T04:23:32.255Z,0.80
2023-03-25T04:26:02.747Z,1.20
2023-03-25T04:28:30.094Z,0.90
2023-03-25T04:31:00.718Z,1.08
2023-03-25T04:33:32.192Z,1.10
2023-03-25T04:36:02.012Z,1.52
2023-03-25T04:38:31.517Z,1.10
2023-03-25T04:40:58.428Z,1.08
2023-03-25T04:43:25.328Z,1.13
2023-03-25T04:45:55.078Z,1.30
2023-03-25T04:48:26.107Z,1.20
2023-03-25T04:50:53.123Z,1.35
2023-03-25T04:53:19.914Z,1.45
2023-03-25T04:55:49.847Z,1.20
2023-03-25T04:58:16.950Z,1.40
2023-03-25T05:00:45.740Z,1.40
2023-03-25T05:03:12.611Z,1.40
2023-03-25T05:05:39.518Z,1.30
2023-03-25T05:08:06.282Z,1.75
2023-03-25T05:10:34.404Z,1.48
2023-03-25T05:13:03.338Z,1.50
2023-03-25T05:15:32.751Z,1.52
2023-03-25T05:18:02.100Z,1.75
2023-03-25T05:20:29.070Z,1.35
2023-03-25T05:22:57.464Z,1.90
2023-03-25T05:25:24.213Z,1.50
2023-03-25T05:27:54.488Z,1.25
2023-03-25T05:30:21.278Z,1.40
2023-03-25T05:32:50.829Z,1.42
2023-03-25T05:35:23.200Z,1.50
2023-03-25T05:37:51.353Z,1.40
2023-03-25T05:40:18.310Z,1.45
2023-03-25T05:42:48.985Z,1.77
2023-03-25T05:45:16.840Z,1.50
2023-03-25T05:47:44.687Z,1.27
2023-03-25T05:50:11.753Z,1.27
2023-03-25T05:52:41.549Z,1.50
2023-03-25T05:55:15.842Z,1.45
2023-03-25T05:57:42.820Z,1.58
2023-03-25T06:00:12.905Z,1.67
2023-03-25T06:02:45.961Z,1.48
2023-03-25T06:05:16.729Z,1.60
2023-03-25T06:07:48.545Z,1.90
2023-03-25T06:10:17.304Z,1.58
2023-03-25T06:12:46.633Z,1.70
2023-03-25T06:15:15.677Z,2.03
2023-03-25T06:17:42.637Z,1.65
2023-03-25T06:20:17.924Z,1.70
2023-03-25T06:22:46.882Z,1.45
2023-03-25T06:25:28.188Z,1.63
2023-03-25T06:27:56.236Z,1.42
2023-03-25T06:30:23.127Z,1.60
2023-03-25T06:32:51.012Z,1.40
2023-03-25T06:35:20.501Z,1.70
2023-03-25T06:37:48.989Z,2.03
2023-03-25T06:40:25.023Z,1.65
2023-03-25T06:42:53.151Z,1.67
2023-03-25T06:45:38.413Z,1.90
2023-03-25T06:48:18.134Z,1.73
2023-03-25T06:50:45.710Z,2.00
2023-03-25T06:53:12.607Z,1.95
2023-03-25T06:55:39.461Z,2.00
2023-03-25T06:58:06.671Z,1.73
2023-03-25T07:00:33.422Z,1.75
2023-03-25T07:03:00.982Z,1.65
2023-03-25T07:05:27.925Z,1.50
2023-03-25T07:07:54.857Z,1.65
2023-03-25T07:10:21.672Z,1.90
2023-03-25T07:12:49.429Z,1.70
2023-03-25T07:15:16.410Z,2.10
2023-03-25T07:17:49.624Z,1.90
2023-03-25T07:20:17.345Z,2.05
2023-03-25T07:22:47.005Z,1.98
2023-03-25T07:25:13.858Z,1.83
2023-03-25T07:27:41.280Z,1.38
2023-03-25T07:30:13.561Z,1.65
2023-03-25T07:32:40.746Z,1.60
2023-03-25T07:35:09.594Z,1.75
2023-03-25T07:37:36.805Z,1.55
2023-03-25T07:40:03.901Z,1.40
2023-03-25T07:42:31.060Z,1.58
2023-03-25T07:47:51.060Z,1.50
2023-03-25T07:50:24.933Z,1.90
2023-03-25T07:52:52.454Z,1.60
2023-03-25T07:55:19.721Z,1.55
2023-03-25T07:57:49.102Z,1.45
2023-03-25T08:00:17.079Z,1.30
2023-03-25T08:02:44.904Z,1.00
2023-03-25T08:05:12.497Z,1.30
2023-03-25T08:07:39.837Z,1.10
2023-03-25T08:10:07.982Z,1.10
2023-03-25T08:12:34.786Z,1.40
2023-03-25T08:15:01.557Z,1.40
2023-03-25T08:17:30.531Z,1.50
2023-03-25T08:19:58.135Z,1.35
2023-03-25T08:22:24.958Z,1.58
2023-03-25T08:24:52.023Z,1.50
2023-03-25T08:27:18.834Z,1.10
2023-03-25T08:29:57.562Z,1.42
2023-03-25T08:32:26.661Z,1.45
2023-03-25T08:34:54.290Z,1.20
2023-03-25T08:37:21.991Z,1.08
2023-03-25T08:39:50.827Z,1.40
2023-03-25T08:42:17.710Z,1.15
2023-03-25T08:44:44.546Z,1.42
2023-03-25T08:47:11.367Z,1.20
2023-03-25T08:49:38.184Z,1.65
2023-03-25T08:52:08.640Z,1.23
2023-03-25T08:54:36.044Z,1.48
2023-03-25T08:57:03.232Z,1.30
2023-03-25T08:59:30.071Z,1.50
2023-03-25T09:02:00.127Z,1.25
2023-03-25T09:04:30.969Z,1.02
2023-03-25T09:07:10.788Z,1.17
2023-03-25T09:09:38.834Z,1.42
2023-03-25T09:12:06.580Z,1.20
2023-03-25T09:14:33.861Z,1.10
2023-03-25T09:17:00.861Z,1.45
2023-03-25T09:19:27.647Z,1.45
2023-03-25T09:21:54.819Z,1.10
2023-03-25T09:24:22.747Z,1.00
2023-03-25T09:26:49.899Z,1.00
2023-03-25T09:29:16.750Z,1.30
2023-03-25T09:31:43.671Z,1.13
2023-03-25T09:34:11.119Z,1.42
2023-03-25T09:36:38.118Z,1.10
2023-03-25T09:39:04.968Z,1.40
2023-03-25T09:41:48.777Z,1.50
2023-03-25T09:44:25.428Z,0.98
2023-03-25T09:46:52.546Z,1.08
2023-03-25T09:49:23.796Z,1.20
2023-03-25T09:51:53.061Z,1.48
2023-03-25T09:54:40.245Z,1.60
2023-03-25T09:57:16.330Z,1.00
2023-03-25T09:59:49.354Z,1.48
2023-03-25T10:04:57.832Z,1.13
2023-03-25T10:07:54.733Z,1.60
2023-03-25T10:10:29.017Z,1.25
2023-03-25T10:13:33.112Z,1.08
2023-03-25T10:16:38.994Z,1.70
2023-03-25T10:19:42.235Z,1.45
2023-03-25T10:22:31.983Z,1.40
2023-03-25T10:25:05.218Z,1.10
2023-03-25T10:27:44.571Z,1.60
2023-03-25T10:30:17.746Z,1.23
2023-03-25T10:32:52.263Z,1.00
2023-03-25T10:35:26.150Z,0.98
2023-03-25T10:37:57.976Z,1.10
2023-03-25T10:40:33.829Z,1.15
2023-03-25T10:43:25.908Z,1.17
2023-03-25T10:46:17.181Z,1.40
2023-03-25T10:48:46.049Z,1.33
2023-03-25T10:51:21.023Z,1.23
2023-03-25T10:53:54.149Z,1.20
2023-03-25T10:56:25.103Z,1.10
2023-03-25T10:58:54.986Z,1.50
2023-03-25T11:01:52.334Z,1.20
2023-03-25T11:04:21.344Z,1.10
2023-03-25T11:06:55.714Z,1.40
2023-03-25T11:09:30.647Z,1.38
2023-03-25T11:12:04.532Z,0.95
2023-03-25T11:14:36.138Z,1.00
2023-03-25T11:17:11.610Z,1.67
2023-03-25T11:19:48.042Z,1.10
2023-03-25T11:22:31.624Z,1.13
2023-03-25T11:25:18.372Z,0.60
2023-03-25T11:28:09.273Z,1.00
2023-03-25T11:30:36.217Z,1.27
2023-03-25T11:33:17.400Z,1.02
2023-03-25T11:35:46.673Z,1.10
2023-03-25T11:38:34.516Z,1.70
2023-03-25T11:41:01.379Z,1.00
2023-03-25T11:43:39.002Z,1.17
2023-03-25T11:46:16.565Z,0.93
2023-03-25T11:48:46.827Z,0.90
2023-03-25T11:51:35.125Z,1.02
2023-03-25T11:54:07.692Z,1.02
2023-03-25T11:56:38.402Z,1.20
2023-03-25T11:59:17.627Z,0.85
2023-03-25T12:01:49.662Z,1.10
2023-03-25T12:04:26.207Z,1.05
2023-03-25T12:07:08.737Z,0.90
2023-03-25T12:09:36.519Z,0.80
2023-03-25T12:12:22.431Z,1.00
2023-03-25T12:15:00.489Z,1.02
2023-03-25T12:17:45.152Z,1.02
2023-03-25T12:20:35.609Z,0.80
2023-03-25T12:23:22.585Z,1.17
2023-03-25T12:25:59.682Z,0.80
2023-03-25T12:29:04.437Z,0.80
2023-03-25T12:31:46.354Z,1.00
2023-03-25T12:34:40.307Z,1.13
2023-03-25T12:37:40.571Z,0.93
2023-03-25T12:40:11.299Z,1.27
2023-03-25T12:43:02.000Z,1.17
2023-03-25T12:45:40.166Z,0.93
2023-03-25T12:48:28.752Z,0.80
2023-03-25T12:51:20.521Z,0.93
2023-03-25T12:53:58.945Z,0.95
2023-03-25T12:56:37.515Z,1.10
2023-03-25T12:59:34.520Z,0.80
2023-03-25T13:02:04.343Z,0.82
2023-03-25T13:04:39.982Z,1.25
2023-03-25T13:07:18.860Z,1.00
2023-03-25T13:10:04.023Z,0.75
2023-03-25T13:12:36.039Z,0.90
2023-03-25T13:15:08.154Z,0.80
2023-03-25T13:17:58.074Z,0.90
2023-03-25T13:20:32.141Z,1.20
2023-03-25T13:23:06.299Z,1.15
2023-03-25T13:25:47.229Z,0.93
2023-03-25T13:28:18.839Z,0.85
2023-03-25T13:30:48.018Z,0.70
2023-03-25T13:33:27.756Z,0.85
2023-03-25T13:36:21.721Z,0.88
2023-03-25T13:38:52.315Z,1.00
2023-03-25T13:41:59.752Z,0.70
2023-03-25T13:44:37.990Z,0.82
2023-03-25T13:47:23.012Z,1.00
2023-03-25T13:50:01.794Z,1.00
2023-03-25T13:52:36.907Z,0.85
2023-03-25T13:55:26.090Z,0.80
2023-03-25T13:58:15.925Z,1.05
2023-03-25T14:01:01.975Z,0.90
2023-03-25T14:04:02.664Z,0.70
2023-03-25T14:06:54.049Z,0.80
2023-03-25T14:09:57.566Z,1.10
2023-03-25T14:12:31.673Z,0.73
2023-03-25T14:15:11.198Z,1.08
2023-03-25T14:17:39.749Z,0.70
2023-03-25T14:20:10.792Z,1.40
2023-03-25T14:22:43.739Z,0.90
2023-03-25T14:28:05.188Z,0.98
2023-03-25T14:30:33.779Z,1.33
2023-03-25T14:33:04.008Z,0.60
2023-03-25T14:35:33.941Z,0.57
2023-03-25T14:38:09.858Z,0.73
2023-03-25T14:40:50.778Z,0.60
2023-03-25T14:43:27.858Z,0.65
2023-03-25T14:46:03.596Z,0.60
2023-03-25T14:48:46.908Z,0.60
2023-03-25T14:51:42.972Z,0.47
2023-03-25T14:54:29.875Z,0.70
2023-03-25T14:57:01.930Z,0.60
2023-03-25T14:59:36.986Z,1.15
2023-03-25T15:02:31.409Z,0.50
2023-03-25T15:05:03.553Z,0.50
2023-03-25T15:07:53.365Z,0.60
2023-03-25T15:10:28.166Z,0.50
2023-03-25T15:13:07.532Z,0.55
2023-03-25T15:15:46.668Z,0.63
2023-03-25T15:18:36.984Z,0.50
2023-03-25T15:21:10.790Z,0.60
2023-03-25T15:24:18.740Z,0.80
2023-03-25T15:26:46.898Z,0.40
2023-03-25T15:29:53.092Z,0.60
2023-03-25T15:32:48.167Z,0.82
2023-03-25T15:35:17.828Z,0.60
2023-03-25T15:38:25.205Z,0.40
2023-03-25T15:41:41.745Z,0.65
2023-03-25T15:44:49.744Z,0.50
2023-03-25T15:47:38.131Z,0.70
2023-03-25T15:50:11.021Z,0.65
2023-03-25T15:53:19.397Z,0.60
2023-03-25T15:55:53.714Z,0.60
2023-03-25T15:58:34.068Z,0.50
2023-03-25T16:01:36.110Z,0.40
2023-03-25T16:04:10.934Z,0.60
2023-03-25T16:06:43.699Z,0.60
2023-03-25T16:09:27.271Z,0.52
2023-03-25T16:12:02.933Z,0.80
2023-03-25T16:14:33.924Z,0.50
2023-03-25T16:17:03.283Z,1.02
2023-03-25T16:19:34.566Z,0.65
2023-03-25T16:22:14.868Z,0.77
2023-03-25T16:24:41.759Z,0.70
2023-03-25T16:27:19.209Z,0.55
2023-03-25T16:29:50.731Z,0.65
2023-03-25T16:32:26.243Z,0.75
2023-03-25T16:34:54.117Z,0.52
2023-03-25T16:37:21.955Z,0.82
2023-03-25T16:40:07.635Z,0.80
2023-03-25T16:42:35.585Z,0.90
2023-03-25T16:45:05.780Z,0.90
2023-03-25T16:47:36.973Z,1.02
2023-03-25T16:50:05.121Z,1.02
2023-03-25T16:52:34.572Z,1.20
2023-03-25T16:55:01.273Z,0.90
2023-03-25T16:57:32.506Z,0.90
2023-03-25T17:00:20.352Z,1.00
2023-03-25T17:02:49.970Z,1.20
2023-03-25T17:05:24.084Z,1.60
2023-03-25T17:08:07.137Z,1.17
2023-03-25T17:10:52.679Z,1.08
2023-03-25T17:13:51.996Z,1.10
2023-03-25T17:16:20.002Z,1.02
2023-03-25T17:18:51.240Z,1.33
2023-03-25T17:21:36.525Z,1.33
2023-03-25T17:24:21.056Z,1.23
2023-03-25T17:27:24.052Z,1.00
2023-03-25T17:29:53.884Z,1.23
2023-03-25T17:32:20.895Z,0.95
2023-03-25T17:35:07.729Z,0.93
2023-03-25T17:37:34.816Z,1.38
2023-03-25T17:40:11.474Z,0.70
2023-03-25T17:42:41.439Z,0.60
2023-03-25T17:45:14.958Z,0.60
2023-03-25T17:47:41.865Z,0.50
2023-03-25T17:50:17.033Z,0.50
2023-03-25T17:52:44.031Z,0.40
2023-03-25T17:55:11.019Z,0.30
2023-03-25T17:57:38.764Z,0.55
2023-03-25T18:00:09.976Z,0.40
2023-03-25T18:02:36.927Z,0.35
2023-03-25T18:05:06.363Z,0.57
2023-03-25T18:07:33.299Z,0.30
2023-03-25T18:10:00.784Z,0.40
2023-03-25T18:12:28.158Z,0.35
2023-03-25T18:14:55.373Z,0.80
2023-03-25T18:17:22.153Z,0.32
2023-03-25T18:19:48.883Z,0.30
2023-03-25T18:24:46.380Z,0.55
2023-03-25T18:27:14.329Z,0.40
2023-03-25T18:29:41.431Z,0.70
2023-03-25T18:32:08.429Z,0.50
2023-03-25T18:34:35.716Z,0.40
2023-03-25T18:37:02.603Z,0.60
2023-03-25T18:39:30.130Z,0.40
2023-03-25T18:41:56.903Z,0.30
2023-03-25T18:44:23.843Z,0.50
2023-03-25T18:46:50.600Z,0.50
2023-03-25T18:49:20.069Z,0.47
2023-03-25T18:51:48.448Z,0.45
2023-03-25T18:54:16.441Z,0.40
2023-03-25T18:56:43.806Z,0.40
2023-03-25T18:59:15.274Z,0.50
2023-03-25T19:01:42.563Z,0.40
2023-03-25T19:04:09.735Z,0.40
2023-03-25T19:06:39.230Z,0.50
2023-03-25T19:09:08.618Z,0.57
2023-03-25T19:11:35.893Z,0.40
2023-03-25T19:14:02.713Z,0.57
2023-03-25T19:16:29.582Z,0.40
2023-03-25T19:18:56.321Z,0.80
2023-03-25T19:21:23.152Z,0.40
2023-03-25T19:23:49.945Z,0.20
2023-03-25T19:26:16.716Z,0.70
2023-03-25T19:28:44.681Z,0.50
2023-03-25T19:31:16.444Z,0.60
2023-03-25T19:33:46.901Z,0.57
2023-03-25T19:36:15.751Z,0.50
2023-03-25T19:38:42.900Z,0.50
2023-03-25T19:41:14.137Z,0.40
2023-03-25T19:43:41.205Z,0.65
2023-03-25T19:46:08.323Z,0.70
2023-03-25T19:48:36.226Z,0.40
2023-03-25T19:51:04.117Z,0.50
2023-03-25T19:53:31.155Z,0.60
2023-03-25T19:56:05.667Z,0.60
2023-03-25T19:58:34.933Z,0.60
2023-03-25T20:01:02.009Z,0.50
2023-03-25T20:03:31.437Z,0.50
2023-03-25T20:06:00.764Z,0.60
2023-03-25T20:08:29.425Z,0.43
2023-03-25T20:10:56.830Z,0.40
2023-03-25T20:13:24.919Z,0.80
2023-03-25T20:15:52.749Z,0.60
2023-03-25T20:18:20.046Z,0.75
2023-03-25T20:20:47.587Z,0.95
2023-03-25T20:23:14.350Z,0.52
2023-03-25T20:25:41.420Z,0.63
2023-03-25T20:28:08.516Z,0.60
2023-03-25T20:30:35.773Z,0.50
2023-03-25T20:33:03.039Z,0.43
2023-03-25T20:35:30.557Z,0.50
2023-03-25T20:37:57.587Z,0.70
2023-03-25T20:40:30.941Z,0.50
2023-03-25T20:43:06.182Z,0.50
2023-03-25T20:45:34.200Z,0.80
2023-03-25T20:48:01.683Z,0.60
2023-03-25T20:50:28.591Z,0.70
2023-03-25T20:52:55.674Z,0.70
2023-03-25T20:55:22.819Z,0.63
2023-03-25T20:57:50.483Z,0.70
2023-03-25T21:00:20.356Z,0.40
2023-03-25T21:05:14.441Z,0.45
2023-03-25T21:07:41.750Z,0.50
2023-03-25T21:10:09.329Z,0.60
2023-03-25T21:12:43.700Z,0.50
2023-03-25T21:15:13.297Z,0.60
2023-03-25T21:17:40.783Z,0.40
2023-03-25T21:20:09.380Z,0.60
2023-03-25T21:22:45.257Z,0.70
2023-03-25T21:25:18.296Z,0.50
2023-03-25T21:27:49.204Z,0.70
2023-03-25T21:30:16.645Z,0.50
2023-03-25T21:32:44.021Z,0.57
2023-03-25T21:35:11.900Z,0.60
2023-03-25T21:37:39.981Z,0.40
2023-03-25T21:40:10.901Z,0.40
2023-03-25T21:42:38.819Z,0.70
2023-03-25T21:45:07.558Z,0.40
2023-03-25T21:47:36.764Z,0.50
2023-03-25T21:50:06.179Z,0.45
2023-03-25T21:52:33.760Z,0.30
2023-03-25T21:55:00.612Z,1.00
2023-03-25T21:57:27.390Z,0.38
2023-03-25T21:59:55.314Z,0.47
2023-03-25T22:02:25.762Z,0.30
2023-03-25T22:04:53.269Z,0.47
2023-03-25T22:07:20.153Z,0.30
2023-03-25T22:09:48.507Z,0.30
2023-03-25T22:12:15.721Z,0.30
2023-03-25T22:14:42.709Z,0.50
2023-03-25T22:17:09.875Z,0.40
2023-03-25T22:19:37.190Z,0.50
2023-03-25T22:22:04.227Z,0.40
2023-03-25T22:24:31.413Z,0.50
2023-03-25T22:27:00.749Z,0.57
2023-03-25T22:29:27.564Z,0.40
2023-03-25T22:31:55.810Z,0.30
2023-03-25T22:34:22.762Z,0.50
2023-03-25T22:36:51.002Z,0.47
2023-03-25T22:39:19.289Z,0.50
2023-03-25T22:41:46.149Z,0.40
2023-03-25T22:44:16.984Z,0.50
2023-03-25T22:46:44.752Z,0.30
2023-03-25T22:49:11.782Z,0.50
2023-03-25T22:51:38.643Z,0.40
2023-03-25T22:54:05.932Z,0.50
2023-03-25T22:56:35.941Z,0.57
2023-03-25T22:59:04.699Z,0.38
2023-03-25T23:01:32.105Z,0.38
2023-03-25T23:03:59.794Z,0.50
2023-03-25T23:06:27.747Z,0.50
2023-03-25T23:08:58.151Z,0.32
2023-03-25T23:11:27.415Z,0.40
2023-03-25T23:14:00.651Z,0.30
2023-03-25T23:16:30.813Z,0.70
2023-03-25T23:18:58.304Z,0.32
2023-03-25T23:21:27.908Z,0.55
2023-03-25T23:23:58.105Z,1.65
2023-03-25T23:26:26.584Z,0.60
2023-03-25T23:28:56.490Z,0.60
2023-03-25T23:31:28.604Z,0.40
2023-03-25T23:34:00.870Z,0.60
2023-03-25T23:36:30.215Z,0.40
2023-03-25T23:38:58.722Z,1.00
2023-03-25T23:41:26.072Z,0.40
2023-03-25T23:43:54.475Z,0.50
2023-03-25T23:46:23.329Z,0.82
2023-03-25T23:48:54.675Z,0.65
2023-03-25T23:51:24.049Z,0.90
2023-03-25T23:53:54.168Z,0.70
2023-03-25T23:56:23.931Z,0.60
2023-03-25T23:58:52.256Z,0.65
